Time;durP1;ratioP1;P1;durP2;ratioP2;P2;SDS_P1;SDS_P2;PMS_P1;PMS_P2;Temp;Humidity;BMP_temperature;BMP_pressure;BME280_temperature;BME280_humidity;BME280_pressure;Samples;Min_cycle;Max_cycle;Signal;HPM_P1;HPM_P2
2023/06/09 00:01:37;;;;;;;0.00;0.00;;;;;;;18.40;84.21;100413.88;4966569;28;20309;-76
2023/06/09 00:04:03;;;;;;;0.00;0.00;;;;;;;18.28;85.67;100423.13;4971085;28;20231;-75
2023/06/09 00:06:30;;;;;;;0.00;0.00;;;;;;;18.37;86.09;100431.16;4972384;28;20200;-76
2023/06/09 00:08:59;;;;;;;0.47;0.47;;;;;;;18.22;85.48;100426.50;4971387;28;20203;-75
2023/06/09 00:11:26;;;;;;;0.00;0.00;;;;;;;18.21;85.53;100424.91;4972282;28;20196;-76
2023/06/09 00:13:52;;;;;;;0.00;0.00;;;;;;;18.10;85.99;100433.00;4954436;28;20612;-76
2023/06/09 00:16:18;;;;;;;0.00;0.00;;;;;;;18.24;86.45;100438.03;4972052;28;20190;-76
2023/06/09 00:18:45;;;;;;;0.00;0.00;;;;;;;18.31;86.84;100438.19;4953888;28;20280;-75
2023/06/09 00:21:18;;;;;;;0.20;0.20;;;;;;;18.31;86.64;100435.41;4972051;28;20205;-76
2023/06/09 00:23:44;;;;;;;0.00;0.00;;;;;;;18.09;86.01;100426.69;4953808;28;20772;-75
2023/06/09 00:26:10;;;;;;;3.17;3.07;;;;;;;18.03;86.08;100436.41;4971987;28;20188;-76
2023/06/09 00:28:36;;;;;;;0.00;0.00;;;;;;;17.88;86.43;100428.97;4971274;28;20273;-76
2023/06/09 00:31:01;;;;;;;0.00;0.00;;;;;;;17.87;87.30;100429.31;4971810;28;20253;-76
2023/06/09 00:33:26;;;;;;;0.37;0.37;;;;;;;17.81;87.53;100437.09;4954244;28;20244;-76
2023/06/09 00:35:52;;;;;;;0.53;0.53;;;;;;;17.63;87.63;100428.34;4971891;28;20611;-75
2023/06/09 00:38:17;;;;;;;0.57;0.57;;;;;;;17.59;87.88;100430.25;4971323;28;20600;-76
2023/06/09 00:40:42;;;;;;;0.00;0.00;;;;;;;17.57;88.39;100429.81;4971748;28;20245;-76
2023/06/09 00:43:08;;;;;;;0.00;0.00;;;;;;;17.66;89.07;100427.66;4971770;28;20261;-74
2023/06/09 00:45:33;;;;;;;0.00;0.00;;;;;;;17.74;89.42;100434.16;4971532;28;20599;-76
2023/06/09 00:47:58;;;;;;;0.43;0.43;;;;;;;17.58;89.16;100428.63;4970740;28;20273;-76
2023/06/09 00:50:24;;;;;;;0.00;0.00;;;;;;;17.52;88.94;100427.31;4971272;28;20181;-76
2023/06/09 00:52:51;;;;;;;0.10;0.10;;;;;;;17.50;88.96;100437.91;4954181;28;20218;-76
2023/06/09 00:55:17;;;;;;;0.00;0.00;;;;;;;17.46;88.98;100425.97;4971801;28;20276;-76
2023/06/09 00:57:43;;;;;;;0.00;0.00;;;;;;;17.37;89.24;100426.19;4953999;28;20212;-74
2023/06/09 01:00:11;;;;;;;0.17;0.17;;;;;;;17.29;89.90;100429.91;4971557;28;20571;-75
2023/06/09 01:02:38;;;;;;;0.00;0.00;;;;;;;17.26;89.84;100430.63;4953792;28;20212;-75
2023/06/09 01:05:05;;;;;;;0.00;0.00;;;;;;;17.38;90.48;100432.50;4971457;28;20193;-75
2023/06/09 01:07:51;;;;;;;0.00;0.00;;;;;;;17.42;90.03;100420.38;4971166;28;20273;-74
2023/06/09 01:10:42;;;;;;;6.50;6.10;;;;;;;17.45;89.82;100424.38;4971288;28;20257;-76
2023/06/09 01:13:39;;;;;;;0.00;0.00;;;;;;;17.58;90.44;100433.38;4971446;28;20673;-73
2023/06/09 01:16:09;;;;;;;0.27;0.27;;;;;;;17.52;89.68;100424.56;4971323;28;20241;-76
2023/06/09 01:18:36;;;;;;;0.40;0.40;;;;;;;17.39;89.49;100418.34;4971152;28;20554;-76
2023/06/09 01:21:14;;;;;;;0.00;0.00;;;;;;;17.34;89.85;100424.09;4971210;28;20232;-75
2023/06/09 01:24:09;;;;;;;0.20;0.20;;;;;;;17.24;90.04;100413.63;4971367;28;20260;-76
2023/06/09 01:26:38;;;;;;;0.27;0.27;;;;;;;17.14;90.69;100406.66;4954416;28;20197;-75
2023/06/09 01:29:05;;;;;;;0.00;0.00;;;;;;;17.11;91.17;100409.34;4953505;28;20197;-76
2023/06/09 01:31:32;;;;;;;0.30;0.20;;;;;;;17.04;90.83;100414.69;4971230;28;20584;-75
2023/06/09 01:34:00;;;;;;;1.40;0.87;;;;;;;17.09;91.11;100417.19;4953855;28;20260;-76
2023/06/09 01:36:26;;;;;;;0.00;0.00;;;;;;;17.15;91.25;100413.00;4974278;28;20281;-76
2023/06/09 01:38:52;;;;;;;0.23;0.23;;;;;;;17.18;91.18;100418.59;4973748;28;20186;-76
2023/06/09 01:41:17;;;;;;;0.00;0.00;;;;;;;17.14;91.94;100426.00;4974717;28;20745;-76
2023/06/09 01:43:42;;;;;;;0.00;0.00;;;;;;;17.18;91.56;100426.88;4974714;28;20735;-75
2023/06/09 01:46:08;;;;;;;0.00;0.00;;;;;;;17.11;91.46;100420.41;4956983;28;20307;-76
2023/06/09 01:48:36;;;;;;;0.00;0.00;;;;;;;17.10;91.89;100424.31;4956805;28;20280;-76
2023/06/09 01:51:08;;;;;;;0.20;0.20;;;;;;;17.15;92.52;100430.34;4974486;28;20182;-76
2023/06/09 01:53:40;;;;;;;0.57;0.57;;;;;;;17.14;92.79;100433.47;4974543;28;20217;-76
2023/06/09 01:56:23;;;;;;;0.00;0.00;;;;;;;17.14;92.83;100423.22;4957140;28;20749;-76
2023/06/09 01:58:53;;;;;;;0.07;0.07;;;;;;;17.16;93.28;100418.16;4973894;28;20186;-76
2023/06/09 02:01:25;;;;;;;0.00;0.00;;;;;;;17.20;92.94;100416.28;4974386;28;20217;-76
2023/06/09 02:03:53;;;;;;;0.00;0.00;;;;;;;17.27;92.66;100418.44;4973876;28;20197;-76
2023/06/09 02:06:20;;;;;;;0.00;0.00;;;;;;;17.25;92.86;100412.47;4974507;28;20189;-75
2023/06/09 02:08:45;;;;;;;0.20;0.20;;;;;;;17.29;92.47;100409.78;4973882;28;20201;-76
2023/06/09 02:11:11;;;;;;;0.00;0.00;;;;;;;17.26;92.25;100405.78;4974062;28;20209;-76
2023/06/09 02:13:36;;;;;;;0.00;0.00;;;;;;;17.16;92.61;100409.06;4974135;28;20260;-76
2023/06/09 02:16:02;;;;;;;0.00;0.00;;;;;;;17.12;92.80;100406.22;4974016;28;20194;-76
2023/06/09 02:18:27;;;;;;;0.00;0.00;;;;;;;17.05;93.21;100411.56;4973504;28;20182;-76
2023/06/09 02:20:53;;;;;;;0.53;0.53;;;;;;;17.01;93.50;100404.34;4974115;28;20301;-76
2023/06/09 02:23:19;;;;;;;0.00;0.00;;;;;;;16.98;93.96;100407.81;4956590;28;20210;-75
2023/06/09 02:25:45;;;;;;;0.17;0.17;;;;;;;17.07;94.17;100409.25;4973802;28;20186;-76
2023/06/09 02:28:11;;;;;;;0.00;0.00;;;;;;;17.06;94.47;100415.91;4956433;28;20193;-75
2023/06/09 02:30:36;;;;;;;0.00;0.00;;;;;;;17.06;94.85;100415.13;4973392;28;20217;-74
2023/06/09 02:33:02;;;;;;;0.00;0.00;;;;;;;17.04;95.26;100415.47;4956210;28;20217;-76
2023/06/09 02:35:29;;;;;;;0.00;0.00;;;;;;;17.04;96.00;100421.00;4973807;28;20264;-76
2023/06/09 02:37:54;;;;;;;0.00;0.00;;;;;;;17.07;95.66;100420.31;4956126;28;20664;-76
2023/06/09 02:40:20;;;;;;;0.00;0.00;;;;;;;17.09;95.71;100431.00;4956013;28;20209;-76
2023/06/09 02:42:47;;;;;;;0.43;0.43;;;;;;;17.03;95.71;100435.97;4973783;28;20680;-76
2023/06/09 02:45:12;;;;;;;0.00;0.00;;;;;;;17.04;95.62;100429.28;4956459;28;20190;-76
2023/06/09 02:47:38;;;;;;;0.33;0.33;;;;;;;17.04;95.21;100426.50;4972838;28;20709;-75
2023/06/09 02:50:04;;;;;;;0.00;0.00;;;;;;;17.03;95.60;100427.69;4973031;28;20200;-76
2023/06/09 02:52:31;;;;;;;0.30;0.30;;;;;;;17.02;95.55;100436.31;4973421;28;20233;-74
2023/06/09 02:54:56;;;;;;;0.00;0.00;;;;;;;17.01;95.67;100432.75;4956119;28;20185;-76
2023/06/09 02:57:22;;;;;;;0.00;0.00;;;;;;;16.97;95.94;100442.91;4973519;28;20228;-76
2023/06/09 02:59:47;;;;;;;0.17;0.17;;;;;;;16.92;96.28;100440.38;4973102;28;20209;-76
2023/06/09 03:02:13;;;;;;;0.20;0.20;;;;;;;16.84;96.66;100444.13;4973531;28;20224;-75
2023/06/09 03:04:40;;;;;;;0.43;0.43;;;;;;;16.80;97.24;100441.28;4973391;28;20668;-76
2023/06/09 03:07:09;;;;;;;0.40;0.40;;;;;;;16.78;97.59;100445.53;4973370;28;20276;-75
2023/06/09 03:09:37;;;;;;;0.00;0.00;;;;;;;16.74;98.20;100444.63;4955700;28;20194;-74
2023/06/09 03:12:02;;;;;;;1.40;0.33;;;;;;;16.74;98.21;100439.91;4973113;28;20185;-74
2023/06/09 03:14:28;;;;;;;0.00;0.00;;;;;;;16.71;98.92;100446.16;4973330;28;20538;-76
2023/06/09 03:16:54;;;;;;;0.00;0.00;;;;;;;16.76;99.63;100447.84;4973107;28;20639;-76
2023/06/09 03:19:19;;;;;;;0.10;0.10;;;;;;;16.80;99.19;100444.03;4972638;28;20193;-75
2023/06/09 03:21:45;;;;;;;0.40;0.40;;;;;;;16.75;98.63;100449.81;4955623;28;20209;-76
2023/06/09 03:24:11;;;;;;;0.40;0.40;;;;;;;16.79;98.83;100449.91;4970826;28;20205;-76
2023/06/09 03:26:37;;;;;;;0.03;0.03;;;;;;;16.70;98.27;100461.09;4968614;28;20236;-74
2023/06/09 03:29:02;;;;;;;0.10;0.10;;;;;;;16.66;98.48;100460.97;4972344;28;20190;-75
2023/06/09 03:31:27;;;;;;;0.10;0.10;;;;;;;16.65;98.33;100459.38;4955358;28;20268;-75
2023/06/09 03:33:53;;;;;;;0.00;0.00;;;;;;;16.66;98.42;100462.94;4972384;28;20221;-74
2023/06/09 03:36:18;;;;;;;0.40;0.40;;;;;;;16.61;98.73;100458.44;4972455;28;20182;-76
2023/06/09 03:38:43;;;;;;;0.00;0.00;;;;;;;16.65;99.26;100459.38;4972154;28;20190;-76
2023/06/09 03:41:09;;;;;;;0.00;0.00;;;;;;;16.65;99.26;100462.13;4972618;28;20281;-76
2023/06/09 03:43:34;;;;;;;0.00;0.00;;;;;;;16.63;99.56;100464.41;4955361;28;20206;-75
2023/06/09 03:45:59;;;;;;;0.00;0.00;;;;;;;16.62;99.18;100468.34;4972447;28;20652;-74
2023/06/09 03:48:25;;;;;;;0.33;0.33;;;;;;;16.61;99.12;100458.44;4971833;28;20189;-76
2023/06/09 03:50:50;;;;;;;0.20;0.20;;;;;;;16.60;99.36;100458.81;4955054;28;20660;-76
2023/06/09 03:53:16;;;;;;;0.00;0.00;;;;;;;16.62;99.04;100462.00;4972014;28;20267;-75
2023/06/09 03:55:41;;;;;;;1.03;0.53;;;;;;;16.70;98.98;100463.06;4972535;28;20196;-76
2023/06/09 03:58:08;;;;;;;0.23;0.23;;;;;;;16.68;99.42;100463.41;4972179;28;20186;-76
2023/06/09 04:00:35;;;;;;;0.43;0.43;;;;;;;16.50;100.00;100470.38;4954327;28;20202;-76
2023/06/09 04:03:00;;;;;;;0.00;0.00;;;;;;;16.48;100.00;100470.69;4954726;28;20715;-76
2023/06/09 04:05:26;;;;;;;0.53;0.53;;;;;;;16.57;100.00;100478.81;4972335;28;20185;-76
2023/06/09 04:07:52;;;;;;;0.00;0.00;;;;;;;16.54;100.00;100476.78;4971994;28;20197;-76
2023/06/09 04:10:18;;;;;;;0.67;0.67;;;;;;;16.52;100.00;100479.09;4954589;28;20197;-76
2023/06/09 04:12:43;;;;;;;0.30;0.30;;;;;;;16.37;100.00;100469.59;4954548;28;20218;-76
2023/06/09 04:15:09;;;;;;;0.90;0.90;;;;;;;16.43;100.00;100479.22;4972143;28;20194;-76
2023/06/09 04:17:36;;;;;;;0.00;0.00;;;;;;;16.43;100.00;100473.69;4971930;28;20256;-76
2023/06/09 04:20:04;;;;;;;0.00;0.00;;;;;;;16.42;100.00;100477.63;4971621;28;20181;-76
2023/06/09 04:22:30;;;;;;;0.00;0.00;;;;;;;16.55;100.00;100481.13;4972629;28;20245;-76
2023/06/09 04:24:55;;;;;;;0.93;0.93;;;;;;;16.53;100.00;100475.16;4973362;28;20210;-78
2023/06/09 04:27:23;;;;;;;0.43;0.43;;;;;;;16.49;100.00;100469.56;4972161;28;20182;-74
2023/06/09 04:29:49;;;;;;;0.00;0.00;;;;;;;16.58;100.00;100470.19;4971696;28;20561;-76
2023/06/09 04:32:16;;;;;;;0.00;0.00;;;;;;;16.69;100.00;100466.97;4971997;28;20193;-77
2023/06/09 04:34:45;;;;;;;0.10;0.10;;;;;;;16.76;100.00;100461.63;4972221;28;20268;-76
2023/06/09 04:37:12;;;;;;;0.00;0.00;;;;;;;16.88;100.00;100470.66;4971749;28;20178;-76
2023/06/09 04:39:38;;;;;;;0.00;0.00;;;;;;;16.99;100.00;100462.69;4972280;28;20192;-75
2023/06/09 04:42:04;;;;;;;0.53;0.53;;;;;;;16.98;100.00;100460.28;4954561;28;20241;-76
2023/06/09 04:44:32;;;;;;;0.00;0.00;;;;;;;17.09;100.00;100467.69;4954910;28;20194;-76
2023/06/09 04:46:58;;;;;;;0.00;0.00;;;;;;;17.06;100.00;100470.31;4972271;28;20185;-76
2023/06/09 04:49:25;;;;;;;0.00;0.00;;;;;;;17.22;100.00;100463.69;4971870;28;20282;-76
2023/06/09 04:51:51;;;;;;;0.00;0.00;;;;;;;17.25;100.00;100467.69;4972831;28;20217;-75
2023/06/09 04:54:17;;;;;;;0.00;0.00;;;;;;;17.43;100.00;100466.16;4955762;28;20225;-77
2023/06/09 04:56:44;;;;;;;0.00;0.00;;;;;;;17.31;100.00;100465.44;4973793;28;20246;-76
2023/06/09 04:59:11;;;;;;;0.00;0.00;;;;;;;17.18;100.00;100468.28;4955545;28;20832;-76
2023/06/09 05:01:37;;;;;;;0.00;0.00;;;;;;;17.19;100.00;100455.28;4956915;28;20213;-75
2023/06/09 05:04:03;;;;;;;0.00;0.00;;;;;;;17.43;100.00;100459.84;4973774;28;20229;-76
2023/06/09 05:06:28;;;;;;;0.00;0.00;;;;;;;17.56;99.86;100466.88;4956222;28;20711;-77
2023/06/09 05:08:55;;;;;;;0.00;0.00;;;;;;;17.33;98.60;100452.09;4974277;28;20217;-77
2023/06/09 05:11:20;;;;;;;0.00;0.00;;;;;;;17.27;99.03;100459.03;4976407;28;20185;-76
2023/06/09 05:13:46;;;;;;;0.00;0.00;;;;;;;17.37;98.96;100467.59;4972051;28;20202;-77
2023/06/09 05:16:12;;;;;;;3.20;0.30;;;;;;;17.32;98.45;100458.78;4978058;28;20264;-76
2023/06/09 05:18:37;;;;;;;0.00;0.00;;;;;;;17.35;97.92;100463.56;4977836;28;20209;-75
2023/06/09 05:21:03;;;;;;;0.00;0.00;;;;;;;17.41;98.05;100467.69;4977832;28;20296;-77
2023/06/09 05:23:28;;;;;;;0.00;0.00;;;;;;;17.51;98.40;100467.16;4977747;28;20212;-77
2023/06/09 05:25:53;;;;;;;0.00;0.00;;;;;;;17.44;97.56;100467.78;4981767;28;20193;-75
2023/06/09 05:28:19;;;;;;;0.00;0.00;;;;;;;17.48;98.20;100468.66;4963357;28;20185;-77
2023/06/09 05:30:44;;;;;;;0.73;0.73;;;;;;;17.56;98.30;100480.69;4981320;28;20201;-77
2023/06/09 05:33:10;;;;;;;0.00;0.00;;;;;;;17.55;98.44;100481.84;4980351;28;20244;-75
2023/06/09 05:35:35;;;;;;;0.00;0.00;;;;;;;17.72;99.12;100484.28;4963834;28;20189;-77
2023/06/09 05:38:00;;;;;;;0.00;0.00;;;;;;;17.70;99.09;100483.84;4981336;28;20205;-77
2023/06/09 05:40:26;;;;;;;0.00;0.00;;;;;;;17.68;99.33;100482.56;4980931;28;20209;-77
2023/06/09 05:42:51;;;;;;;0.23;0.23;;;;;;;17.92;99.43;100493.41;4963352;28;20229;-77
2023/06/09 05:45:16;;;;;;;0.10;0.10;;;;;;;17.95;98.96;100491.91;4963341;28;20723;-77
2023/06/09 05:47:42;;;;;;;0.10;0.10;;;;;;;18.08;97.84;100493.38;4980859;28;20331;-76
2023/06/09 05:50:07;;;;;;;0.00;0.00;;;;;;;17.93;97.64;100496.97;4962643;28;20656;-77
2023/06/09 05:52:33;;;;;;;0.00;0.00;;;;;;;18.10;97.55;100504.91;4981085;28;20276;-77
2023/06/09 05:55:00;;;;;;;0.00;0.00;;;;;;;18.36;97.45;100501.50;4983312;28;20684;-78
2023/06/09 05:57:29;;;;;;;0.00;0.00;;;;;;;18.33;96.47;100502.22;4963547;28;20185;-76
2023/06/09 05:59:56;;;;;;;0.90;0.90;;;;;;;18.14;95.03;100500.25;4982363;28;20206;-75
2023/06/09 06:02:21;;;;;;;0.00;0.00;;;;;;;18.11;95.24;100506.50;4981504;28;20206;-77
2023/06/09 06:04:47;;;;;;;0.40;0.40;;;;;;;18.04;94.98;100509.88;4981020;28;20528;-78
2023/06/09 06:07:14;;;;;;;0.53;0.53;;;;;;;18.02;95.71;100506.69;4981529;28;20596;-78
2023/06/09 06:09:39;;;;;;;0.00;0.00;;;;;;;18.05;95.98;100507.94;4964038;28;20181;-75
2023/06/09 06:12:06;;;;;;;4.47;4.23;;;;;;;18.25;94.91;100512.34;4963710;28;20285;-77
2023/06/09 06:14:31;;;;;;;0.20;0.20;;;;;;;18.36;94.23;100507.84;4977171;28;20178;-80
2023/06/09 06:16:57;;;;;;;2.47;2.27;;;;;;;18.23;93.90;100502.81;4952247;28;20277;-81
2023/06/09 06:19:22;;;;;;;0.00;0.00;;;;;;;18.47;93.84;100505.31;4979090;28;20660;-81
2023/06/09 06:21:48;;;;;;;0.70;0.70;;;;;;;18.64;93.74;100506.88;4978555;28;20228;-77
2023/06/09 06:24:14;;;;;;;0.37;0.37;;;;;;;18.79;92.67;100508.75;4986779;28;20718;-78
2023/06/09 06:26:39;;;;;;;0.30;0.30;;;;;;;18.60;92.83;100500.44;4961777;28;20277;-82
2023/06/09 06:29:05;;;;;;;0.30;0.30;;;;;;;18.96;92.42;100515.81;4970553;28;20245;-77
2023/06/09 06:31:30;;;;;;;0.70;0.70;;;;;;;19.00;90.75;100514.72;4974700;28;20193;-75
2023/06/09 06:33:57;;;;;;;0.20;0.20;;;;;;;18.90;90.72;100511.72;4967118;28;20220;-75
2023/06/09 06:36:23;;;;;;;0.00;0.00;;;;;;;19.06;91.24;100514.41;4957967;28;20186;-75
2023/06/09 06:38:48;;;;;;;0.10;0.10;;;;;;;19.21;90.34;100508.75;4974670;28;20704;-75
2023/06/09 06:41:14;;;;;;;1.10;1.10;;;;;;;19.26;88.98;100507.69;4966986;28;20202;-76
2023/06/09 06:43:41;;;;;;;0.40;0.40;;;;;;;19.28;88.49;100510.88;4951626;28;20201;-76
2023/06/09 06:46:07;;;;;;;0.00;0.00;;;;;;;19.19;87.95;100510.31;4975331;28;20188;-74
2023/06/09 06:48:32;;;;;;;0.20;0.20;;;;;;;19.33;89.76;100516.09;4958307;28;20190;-76
2023/06/09 06:50:57;;;;;;;0.40;0.40;;;;;;;19.18;88.79;100515.03;4976020;28;20185;-76
2023/06/09 06:53:25;;;;;;;2.00;1.90;;;;;;;19.14;88.15;100519.72;4976214;28;20232;-76
2023/06/09 06:55:50;;;;;;;0.17;0.17;;;;;;;19.12;87.99;100511.00;4958549;28;20197;-76
2023/06/09 06:58:16;;;;;;;2.33;1.80;;;;;;;19.12;87.63;100513.75;4975871;28;20186;-76
2023/06/09 07:00:41;;;;;;;0.30;0.30;;;;;;;19.27;87.79;100523.13;4951138;29;20199;-75
2023/06/09 07:03:09;;;;;;;1.80;0.50;;;;;;;19.31;88.02;100518.44;4975871;28;20198;-77
2023/06/09 07:05:35;;;;;;;1.33;1.33;;;;;;;19.32;86.79;100522.81;4977183;28;20546;-77
2023/06/09 07:08:00;;;;;;;0.00;0.00;;;;;;;19.51;86.87;100521.94;4972896;28;20177;-78
2023/06/09 07:10:26;;;;;;;0.00;0.00;;;;;;;19.62;85.94;100525.75;4957512;28;20178;-80
2023/06/09 07:12:51;;;;;;;2.33;1.10;;;;;;;19.76;85.92;100522.41;4974075;28;20632;-78
2023/06/09 07:15:16;;;;;;;0.00;0.00;;;;;;;19.86;85.92;100530.09;4974469;28;20189;-75
2023/06/09 07:17:42;;;;;;;0.30;0.30;;;;;;;20.04;84.64;100522.84;4974080;28;20205;-77
2023/06/09 07:20:08;;;;;;;0.00;0.00;;;;;;;20.08;84.86;100531.22;4974935;28;20210;-76
2023/06/09 07:22:34;;;;;;;1.90;1.53;;;;;;;20.02;83.45;100514.09;4974961;28;20246;-76
2023/06/09 07:24:59;;;;;;;0.73;0.73;;;;;;;19.99;83.07;100520.41;4974431;28;20705;-75
2023/06/09 07:27:25;;;;;;;1.17;1.17;;;;;;;20.23;83.78;100521.13;4974773;28;20526;-75
2023/06/09 07:29:50;;;;;;;0.07;0.07;;;;;;;20.41;83.13;100528.56;4974817;28;20197;-76
2023/06/09 07:32:16;;;;;;;0.73;0.73;;;;;;;20.52;81.89;100514.00;4974554;28;20278;-76
2023/06/09 07:34:42;;;;;;;0.00;0.00;;;;;;;20.48;81.54;100520.31;4957066;28;20274;-75
2023/06/09 07:37:07;;;;;;;0.00;0.00;;;;;;;20.53;81.50;100516.41;4975926;28;20186;-76
2023/06/09 07:39:35;;;;;;;0.93;0.93;;;;;;;20.62;81.52;100518.91;4978527;28;20194;-76
2023/06/09 07:42:00;;;;;;;0.50;0.30;;;;;;;20.63;81.25;100514.97;4969654;28;20200;-81
2023/06/09 07:44:26;;;;;;;1.87;1.37;;;;;;;20.67;81.32;100516.59;4978047;28;20732;-80
2023/06/09 07:46:51;;;;;;;0.80;0.80;;;;;;;20.46;81.16;100511.56;4977891;28;20178;-79
2023/06/09 07:49:16;;;;;;;0.00;0.00;;;;;;;20.33;81.12;100515.72;4959732;28;20191;-77
2023/06/09 07:51:43;;;;;;;0.80;0.80;;;;;;;20.30;81.08;100518.47;4976063;28;20694;-81
2023/06/09 07:54:09;;;;;;;0.00;0.00;;;;;;;20.31;80.77;100514.50;4959310;28;20214;-78
2023/06/09 07:56:34;;;;;;;0.00;0.00;;;;;;;20.46;81.48;100517.13;4976682;28;20187;-77
2023/06/09 07:59:00;;;;;;;0.10;0.10;;;;;;;20.46;81.11;100522.69;4976008;28;20178;-76
2023/06/09 08:01:25;;;;;;;0.00;0.00;;;;;;;20.44;81.21;100515.91;4975105;28;20232;-77
2023/06/09 08:03:51;;;;;;;0.33;0.33;;;;;;;20.63;82.56;100524.09;4960392;28;20283;-77
2023/06/09 08:06:16;;;;;;;0.90;0.90;;;;;;;20.82;83.45;100523.13;4975013;28;20237;-77
2023/06/09 08:08:42;;;;;;;1.67;1.67;;;;;;;20.92;81.96;100519.66;4970528;28;20179;-77
2023/06/09 08:11:07;;;;;;;6.53;1.43;;;;;;;20.95;79.58;100516.13;4968921;28;20653;-77
2023/06/09 08:13:33;;;;;;;0.43;0.43;;;;;;;21.15;78.65;100519.53;4975646;28;20694;-78
2023/06/09 08:15:58;;;;;;;0.33;0.33;;;;;;;21.25;75.95;100518.84;4958449;28;20193;-78
2023/06/09 08:18:23;;;;;;;0.10;0.10;;;;;;;21.42;75.99;100508.31;4958903;28;20783;-78
2023/06/09 08:20:48;;;;;;;0.50;0.50;;;;;;;21.55;75.20;100512.38;4975978;28;20203;-76
2023/06/09 08:23:15;;;;;;;1.47;1.37;;;;;;;21.46;74.42;100509.13;4968963;28;20702;-77
2023/06/09 08:25:41;;;;;;;1.00;1.00;;;;;;;21.41;74.07;100503.91;4958557;28;20197;-76
2023/06/09 08:28:06;;;;;;;14.63;1.70;;;;;;;21.25;73.36;100504.94;4975720;28;20200;-78
2023/06/09 08:30:31;;;;;;;3.67;3.47;;;;;;;21.34;73.15;100501.88;4975563;28;20238;-77
2023/06/09 08:32:57;;;;;;;0.00;0.00;;;;;;;21.57;73.66;100504.47;4976660;28;20237;-78
2023/06/09 08:35:22;;;;;;;0.20;0.20;;;;;;;21.85;74.17;100503.91;4975853;28;20191;-78
2023/06/09 08:37:48;;;;;;;3.23;3.00;;;;;;;21.75;71.12;100485.13;4951712;28;20185;-77
2023/06/09 08:40:13;;;;;;;0.33;0.33;;;;;;;21.95;72.82;100500.38;4971569;28;20189;-78
2023/06/09 08:42:39;;;;;;;0.00;0.00;;;;;;;22.12;70.44;100490.56;4956326;28;20211;-78
2023/06/09 08:45:05;;;;;;;0.77;0.77;;;;;;;22.19;69.31;100485.84;4977876;28;20200;-78
2023/06/09 08:47:32;;;;;;;0.13;0.13;;;;;;;22.15;70.41;100496.19;4980600;28;20184;-78
2023/06/09 08:49:59;;;;;;;0.00;0.00;;;;;;;22.11;70.83;100492.56;4974179;28;20178;-78
2023/06/09 08:52:26;;;;;;;0.83;0.83;;;;;;;22.29;71.12;100491.88;4981401;28;20207;-75
2023/06/09 08:54:53;;;;;;;0.23;0.23;;;;;;;22.19;71.12;100498.97;4980837;28;20657;-78
2023/06/09 08:57:18;;;;;;;1.27;0.80;;;;;;;22.39;71.28;100496.69;4981749;28;20190;-76
2023/06/09 08:59:46;;;;;;;1.37;0.47;;;;;;;22.35;71.23;100501.44;4981546;28;20718;-78
2023/06/09 09:02:12;;;;;;;0.00;0.00;;;;;;;22.17;71.76;100501.34;4980246;28;20204;-78
2023/06/09 09:04:38;;;;;;;0.37;0.37;;;;;;;22.21;71.71;100494.59;4981599;28;20645;-78
2023/06/09 09:07:05;;;;;;;1.60;1.50;;;;;;;22.20;71.29;100493.00;4979143;28;20213;-78
2023/06/09 09:09:30;;;;;;;0.50;0.50;;;;;;;22.20;72.43;100495.00;4980973;28;20183;-78
2023/06/09 09:12:01;;;;;;;2.93;2.83;;;;;;;22.24;71.63;100491.03;4979778;28;20177;-78
2023/06/09 09:14:26;;;;;;;5.23;3.90;;;;;;;22.21;71.25;100491.03;4980466;28;20596;-78
2023/06/09 09:16:52;;;;;;;1.97;1.87;;;;;;;22.28;70.37;100488.28;4963001;28;20243;-78
2023/06/09 09:19:26;;;;;;;0.10;0.10;;;;;;;22.40;71.28;100493.50;4962346;28;20200;-76
2023/06/09 09:21:53;;;;;;;2.73;1.50;;;;;;;22.67;71.69;100493.22;4973058;28;20547;-76
2023/06/09 09:24:18;;;;;;;4.13;3.47;;;;;;;22.76;71.40;100482.53;4980786;28;20203;-78
2023/06/09 09:26:44;;;;;;;0.77;0.77;;;;;;;22.87;72.39;100497.31;4973013;28;20182;-78
2023/06/09 09:29:09;;;;;;;1.20;1.10;;;;;;;23.04;70.49;100485.41;4980527;28;20178;-78
2023/06/09 09:31:44;;;;;;;2.83;2.63;;;;;;;22.97;69.58;100479.81;4963276;28;20229;-78
2023/06/09 09:34:14;;;;;;;0.67;0.67;;;;;;;23.17;69.00;100482.25;4963524;28;20219;-78
2023/06/09 09:36:43;;;;;;;0.50;0.50;;;;;;;23.47;69.07;100487.47;4981413;28;20557;-77
2023/06/09 09:39:08;;;;;;;2.13;1.93;;;;;;;23.39;67.07;100475.50;4981061;28;20526;-77
2023/06/09 09:41:34;;;;;;;4.27;2.17;;;;;;;23.53;66.82;100477.47;4981816;28;20208;-79
2023/06/09 09:43:59;;;;;;;5.50;3.60;;;;;;;23.19;67.78;100477.06;4972001;28;20202;-78
2023/06/09 09:46:24;;;;;;;0.20;0.20;;;;;;;23.67;69.01;100483.09;4979198;28;20193;-78
2023/06/09 09:48:51;;;;;;;1.30;1.20;;;;;;;23.74;67.35;100474.72;4979827;28;20182;-78
2023/06/09 09:51:19;;;;;;;1.30;1.30;;;;;;;23.93;66.34;100476.28;4962348;28;20186;-78
2023/06/09 09:53:50;;;;;;;1.67;1.57;;;;;;;23.36;67.15;100468.72;4973322;28;20214;-78
2023/06/09 09:56:18;;;;;;;2.47;2.30;;;;;;;23.10;66.93;100469.88;4955258;28;20181;-77
2023/06/09 09:58:45;;;;;;;2.47;2.37;;;;;;;23.05;67.75;100478.66;4978995;28;20618;-77
2023/06/09 10:01:12;;;;;;;0.47;0.47;;;;;;;23.05;68.22;100475.06;4971940;28;20245;-78
2023/06/09 10:03:38;;;;;;;2.53;1.60;;;;;;;23.04;68.08;100479.03;4961666;28;20206;-76
2023/06/09 10:06:09;;;;;;;3.90;3.60;;;;;;;22.94;68.25;100480.59;4980121;28;20193;-77
2023/06/09 10:08:35;;;;;;;0.40;0.40;;;;;;;23.17;68.19;100482.25;4972141;28;20182;-77
2023/06/09 10:11:01;;;;;;;4.67;4.30;;;;;;;22.92;67.65;100480.19;4950062;28;20174;-77
2023/06/09 10:13:27;;;;;;;1.90;1.77;;;;;;;23.13;67.63;100480.22;4966947;28;20727;-78
2023/06/09 10:15:57;;;;;;;6.47;5.90;;;;;;;23.06;67.09;100476.66;4957753;28;20177;-76
2023/06/09 10:18:23;;;;;;;1.57;1.47;;;;;;;23.27;67.27;100470.28;4953586;28;20556;-77
2023/06/09 10:20:51;;;;;;;1.90;0.73;;;;;;;23.65;66.53;100477.13;4977502;28;20269;-78
2023/06/09 10:23:16;;;;;;;1.60;1.50;;;;;;;23.94;65.55;100470.31;4985397;28;20597;-78
2023/06/09 10:25:42;;;;;;;1.93;1.33;;;;;;;23.94;65.20;100473.09;4970752;28;20183;-79
2023/06/09 10:28:10;;;;;;;13.73;3.90;;;;;;;23.82;64.44;100465.13;4952795;28;20195;-77
2023/06/09 10:30:36;;;;;;;1.70;1.60;;;;;;;23.82;64.69;100467.13;4947853;29;20590;-78
2023/06/09 10:33:09;;;;;;;0.97;0.87;;;;;;;23.82;64.08;100464.34;4958164;28;20218;-78
2023/06/09 10:35:37;;;;;;;2.57;2.37;;;;;;;23.72;64.67;100463.97;4976069;28;20190;-83
2023/06/09 10:38:39;;;;;;;0.60;0.60;;;;;;;24.07;65.07;100462.31;4957948;28;20186;-77
2023/06/09 10:41:18;;;;;;;2.70;2.50;;;;;;;23.86;64.74;100462.31;4975308;28;20213;-78
2023/06/09 10:44:17;;;;;;;1.63;1.53;;;;;;;24.05;63.68;100459.13;4975564;28;20591;-76
2023/06/09 10:46:47;;;;;;;0.20;0.17;;;;;;;24.30;63.85;100462.66;4975406;28;20850;-76
2023/06/09 10:49:47;;;;;;;1.93;1.80;;;;;;;24.35;65.02;100455.84;4967374;28;20217;-77
2023/06/09 10:52:35;;;;;;;0.60;0.60;;;;;;;24.29;65.03;100466.63;4971599;28;20195;-76
2023/06/09 10:55:15;;;;;;;2.10;1.90;;;;;;;24.32;63.51;100454.69;4966147;28;20186;-77
2023/06/09 10:57:41;;;;;;;1.83;1.73;;;;;;;24.56;62.92;100469.72;4958280;28;20602;-77
2023/06/09 11:00:11;;;;;;;3.17;2.17;;;;;;;24.36;63.78;100465.03;4967240;28;20209;-76
2023/06/09 11:02:44;;;;;;;1.97;1.87;;;;;;;24.40;62.15;100449.84;4958737;28;20317;-77
2023/06/09 11:05:10;;;;;;;1.67;1.57;;;;;;;24.50;63.71;100462.19;4968652;28;20265;-77
2023/06/09 11:07:47;;;;;;;8.70;3.90;;;;;;;24.91;62.45;100453.97;4977891;28;20190;-78
2023/06/09 11:10:12;;;;;;;2.93;2.73;;;;;;;24.43;62.30;100454.63;4956212;29;20649;-77
2023/06/09 11:12:46;;;;;;;0.17;0.17;;;;;;;24.31;63.22;100455.88;4971134;28;20210;-78
2023/06/09 11:15:15;;;;;;;1.10;1.10;;;;;;;24.51;62.72;100458.19;4964434;28;20178;-77
2023/06/09 11:17:41;;;;;;;3.50;3.20;;;;;;;24.38;61.57;100445.88;4971339;28;20201;-75
2023/06/09 11:20:09;;;;;;;3.07;2.87;;;;;;;23.85;62.68;100444.78;4950022;28;20198;-77
2023/06/09 11:22:58;;;;;;;5.10;4.70;;;;;;;23.51;62.14;100447.19;4975698;28;20193;-76
2023/06/09 11:25:26;;;;;;;2.97;2.77;;;;;;;23.45;62.96;100444.03;4976404;28;20285;-77